createdAt,value
2018-10-17T00:01:05.109Z,10.95
2018-10-17T00:03:33.945Z,10.97
2018-10-17T00:06:02.754Z,10.93
2018-10-17T00:08:31.659Z,10.92
2018-10-17T00:11:00.570Z,10.90
2018-10-17T00:13:29.270Z,10.87
2018-10-17T00:16:02.754Z,10.84
2018-10-17T00:18:31.495Z,10.81
2018-10-17T00:21:00.239Z,10.88
2018-10-17T00:23:29.142Z,10.93
2018-10-17T00:26:02.739Z,10.91
2018-10-17T00:28:34.456Z,10.88
2018-10-17T00:31:03.766Z,10.90
2018-10-17T00:33:32.676Z,10.83
2018-10-17T00:36:02.494Z,10.77
2018-10-17T00:38:31.272Z,10.77
2018-10-17T00:41:00.209Z,10.77
2018-10-17T00:43:29.019Z,10.68
2018-10-17T00:45:58.936Z,10.60
2018-10-17T00:48:27.821Z,10.53
2018-10-17T00:50:56.757Z,10.47
2018-10-17T00:53:25.538Z,10.42
2018-10-17T00:55:54.295Z,10.40
2018-10-17T00:58:23.261Z,10.50
2018-10-17T01:00:51.909Z,10.61
2018-10-17T01:03:20.627Z,10.64
2018-10-17T01:05:49.370Z,10.61
2018-10-17T01:08:18.077Z,10.52
2018-10-17T01:10:46.684Z,10.46
2018-10-17T01:13:15.461Z,10.42
2018-10-17T01:15:44.106Z,10.38
2018-10-17T01:18:12.676Z,10.35
2018-10-17T01:20:41.392Z,10.33
2018-10-17T01:23:10.256Z,10.32
2018-10-17T01:25:38.889Z,10.28
2018-10-17T01:28:07.547Z,10.30
2018-10-17T01:30:36.187Z,10.32
2018-10-17T01:33:04.998Z,10.32
2018-10-17T01:35:33.815Z,10.26
2018-10-17T01:38:02.499Z,10.23
2018-10-17T01:40:31.131Z,10.22
2018-10-17T01:42:59.881Z,10.33
2018-10-17T01:45:28.580Z,10.41
2018-10-17T01:47:58.397Z,10.38
2018-10-17T01:50:26.933Z,10.34
2018-10-17T01:52:55.593Z,10.31
2018-10-17T01:55:24.516Z,10.34
2018-10-17T01:57:53.291Z,10.28
2018-10-17T02:00:22.018Z,10.24
2018-10-17T02:02:50.765Z,10.23
2018-10-17T02:05:19.434Z,10.26
2018-10-17T02:07:48.156Z,10.34
2018-10-17T02:10:16.774Z,10.38
2018-10-17T02:12:45.473Z,10.44
2018-10-17T02:15:14.046Z,10.51
2018-10-17T02:17:42.800Z,10.52
2018-10-17T02:20:11.439Z,10.51
2018-10-17T02:22:40.169Z,10.51
2018-10-17T02:25:08.795Z,10.54
2018-10-17T02:27:37.531Z,10.57
2018-10-17T02:30:06.928Z,10.60
2018-10-17T02:32:35.552Z,10.56
2018-10-17T02:35:09.926Z,10.54
2018-10-17T02:37:38.460Z,10.50
2018-10-17T02:40:07.184Z,10.46
2018-10-17T02:42:35.966Z,10.44
2018-10-17T02:45:04.786Z,10.38
2018-10-17T02:47:33.525Z,10.30
2018-10-17T02:50:06.450Z,10.23
2018-10-17T02:52:35.532Z,10.16
2018-10-17T02:55:04.337Z,10.20
2018-10-17T02:57:33.058Z,10.27
2018-10-17T03:00:02.234Z,10.26
2018-10-17T03:02:31.036Z,10.19
2018-10-17T03:04:59.786Z,10.14
2018-10-17T03:07:28.647Z,10.07
2018-10-17T03:09:57.331Z,10.05
2018-10-17T03:12:26.170Z,10.06
2018-10-17T03:14:55.131Z,10.00
2018-10-17T03:17:23.693Z,9.98
2018-10-17T03:19:52.398Z,10.03
2018-10-17T03:22:21.109Z,10.03
2018-10-17T03:24:49.892Z,9.98
2018-10-17T03:27:18.579Z,10.02
2018-10-17T03:29:47.216Z,10.13
2018-10-17T03:32:15.906Z,10.15
2018-10-17T03:34:44.576Z,10.09
2018-10-17T03:37:13.252Z,10.09
2018-10-17T03:39:41.844Z,10.14
2018-10-17T03:42:10.534Z,10.16
2018-10-17T03:44:39.307Z,10.22
2018-10-17T03:47:08.059Z,10.18
2018-10-17T03:49:36.694Z,10.10
2018-10-17T03:52:05.800Z,9.99
2018-10-17T03:54:34.402Z,9.95
2018-10-17T03:57:03.004Z,9.92
2018-10-17T03:59:31.810Z,9.95
2018-10-17T04:02:00.373Z,9.95
2018-10-17T04:04:29.043Z,9.92
2018-10-17T04:06:57.798Z,9.87
2018-10-17T04:09:26.471Z,9.86
2018-10-17T04:11:55.218Z,9.76
2018-10-17T04:14:23.915Z,9.68
2018-10-17T04:16:52.700Z,9.64
2018-10-17T04:19:21.562Z,9.66
2018-10-17T04:21:50.097Z,9.73
2018-10-17T04:24:18.745Z,9.74
2018-10-17T04:26:48.134Z,9.78
2018-10-17T04:29:17.049Z,9.83
2018-10-17T04:31:45.764Z,9.87
2018-10-17T04:34:14.560Z,9.94
2018-10-17T04:36:43.297Z,9.95
2018-10-17T04:39:12.701Z,9.94
2018-10-17T04:41:41.844Z,9.90
2018-10-17T04:44:11.824Z,9.86
2018-10-17T04:46:40.902Z,9.83
2018-10-17T04:49:10.284Z,9.86
2018-10-17T04:51:38.859Z,9.90
2018-10-17T04:54:07.860Z,9.94
2018-10-17T04:56:36.634Z,10.00
2018-10-17T04:59:05.547Z,10.07
2018-10-17T05:01:34.382Z,10.11
2018-10-17T05:04:03.037Z,10.13
2018-10-17T05:06:31.759Z,10.14
2018-10-17T05:09:00.636Z,10.11
2018-10-17T05:11:29.322Z,10.12
2018-10-17T05:13:58.012Z,10.13
2018-10-17T05:16:27.711Z,10.17
2018-10-17T05:18:56.520Z,10.18
2018-10-17T05:21:25.185Z,10.16
2018-10-17T05:23:54.028Z,10.16
2018-10-17T05:26:22.818Z,10.16
2018-10-17T05:28:51.570Z,10.13
2018-10-17T05:31:20.338Z,10.10
2018-10-17T05:33:49.125Z,10.09
2018-10-17T05:36:17.819Z,10.12
2018-10-17T05:38:46.494Z,10.29
2018-10-17T05:41:15.280Z,10.42
2018-10-17T05:43:43.964Z,10.45
2018-10-17T05:46:12.848Z,10.45
2018-10-17T05:48:41.657Z,10.39
2018-10-17T05:51:10.500Z,10.29
2018-10-17T05:53:39.128Z,10.23
2018-10-17T05:56:07.800Z,10.19
2018-10-17T05:58:36.448Z,10.16
2018-10-17T06:01:05.562Z,10.08
2018-10-17T06:03:34.301Z,10.06
2018-10-17T06:06:03.030Z,10.07
2018-10-17T06:08:32.028Z,10.05
2018-10-17T06:11:00.785Z,10.08
2018-10-17T06:13:29.504Z,10.16
2018-10-17T06:15:58.292Z,10.26
2018-10-17T06:18:27.092Z,10.35
2018-10-17T06:20:55.899Z,10.41
2018-10-17T06:23:25.279Z,10.47
2018-10-17T06:25:54.241Z,10.55
2018-10-17T06:28:23.081Z,10.58
2018-10-17T06:30:52.120Z,10.61
2018-10-17T06:33:20.765Z,10.67
2018-10-17T06:35:49.684Z,10.71
2018-10-17T06:38:18.485Z,10.77
2018-10-17T06:40:47.327Z,10.82
2018-10-17T06:43:16.120Z,10.88
2018-10-17T06:45:44.978Z,10.98
2018-10-17T06:48:13.734Z,11.05
2018-10-17T06:50:42.847Z,11.11
2018-10-17T06:53:11.551Z,11.16
2018-10-17T06:55:40.627Z,11.22
2018-10-17T06:58:09.701Z,11.32
2018-10-17T07:00:38.334Z,11.43
2018-10-17T07:03:07.096Z,11.56
2018-10-17T07:05:35.848Z,11.71
2018-10-17T07:08:04.616Z,11.89
2018-10-17T07:10:33.331Z,12.07
2018-10-17T07:13:02.145Z,12.30
2018-10-17T07:15:31.031Z,12.54
2018-10-17T07:17:59.628Z,12.78
2018-10-17T07:20:28.266Z,12.99
2018-10-17T07:22:56.943Z,13.17
2018-10-17T07:25:25.678Z,13.34
2018-10-17T07:27:54.381Z,13.51
2018-10-17T07:30:23.334Z,13.72
2018-10-17T07:32:52.022Z,13.94
2018-10-17T07:35:20.824Z,14.14
2018-10-17T07:37:49.753Z,14.35
2018-10-17T07:40:18.588Z,14.52
2018-10-17T07:42:47.252Z,14.65
2018-10-17T07:45:15.926Z,14.77
2018-10-17T07:47:45.092Z,14.87
2018-10-17T07:50:14.895Z,14.97
2018-10-17T07:52:43.718Z,15.05
2018-10-17T07:55:13.013Z,15.10
2018-10-17T07:57:41.864Z,15.13
2018-10-17T08:00:13.569Z,15.22
2018-10-17T08:02:42.268Z,15.23
2018-10-17T08:05:11.407Z,15.26
2018-10-17T08:07:40.170Z,15.31
2018-10-17T08:10:12.624Z,15.38
2018-10-17T08:12:41.270Z,15.44
2018-10-17T08:15:10.532Z,15.49
2018-10-17T08:17:39.277Z,15.57
2018-10-17T08:20:11.039Z,15.62
2018-10-17T08:22:40.326Z,15.69
2018-10-17T08:25:10.320Z,15.71
2018-10-17T08:27:39.171Z,15.74
2018-10-17T08:30:09.693Z,15.77
2018-10-17T08:32:40.427Z,15.78
2018-10-17T08:35:09.749Z,15.80
2018-10-17T08:37:39.251Z,15.83
2018-10-17T08:40:10.039Z,15.85
2018-10-17T08:42:38.717Z,15.93
2018-10-17T08:45:08.077Z,15.99
2018-10-17T08:47:36.631Z,16.06
2018-10-17T08:50:06.917Z,16.16
2018-10-17T08:52:35.677Z,16.24
2018-10-17T08:55:04.923Z,16.40
2018-10-17T08:57:33.666Z,16.59
2018-10-17T09:00:03.052Z,16.71
2018-10-17T09:02:32.007Z,16.79
2018-10-17T09:05:01.037Z,16.93
2018-10-17T09:07:31.376Z,17.07
2018-10-17T09:10:00.268Z,17.24
2018-10-17T09:12:29.132Z,17.40
2018-10-17T09:14:58.214Z,17.51
2018-10-17T09:17:27.242Z,17.59
2018-10-17T09:19:56.505Z,17.71
2018-10-17T09:22:26.329Z,17.82
2018-10-17T09:24:54.954Z,17.94
2018-10-17T09:27:23.692Z,18.13
2018-10-17T09:30:03.490Z,18.18
2018-10-17T09:32:32.827Z,18.26
2018-10-17T09:35:01.714Z,18.36
2018-10-17T09:37:30.396Z,18.46
2018-10-17T09:40:00.966Z,18.51
2018-10-17T09:42:29.869Z,18.53
2018-10-17T09:44:58.603Z,18.52
2018-10-17T09:47:27.859Z,18.56
2018-10-17T09:50:05.756Z,18.62
2018-10-17T09:52:34.851Z,18.62
2018-10-17T09:55:03.834Z,18.70
2018-10-17T09:57:32.798Z,18.74
2018-10-17T10:00:08.455Z,18.79
2018-10-17T10:02:40.042Z,18.78
2018-10-17T10:05:08.891Z,18.80
2018-10-17T10:07:39.473Z,18.86
2018-10-17T10:10:12.318Z,18.93
2018-10-17T10:12:40.998Z,19.05
2018-10-17T10:15:10.657Z,19.19
2018-10-17T10:17:39.764Z,19.34
2018-10-17T10:20:08.781Z,19.43
2018-10-17T10:22:37.548Z,19.54
2018-10-17T10:25:07.059Z,19.66
2018-10-17T10:27:35.950Z,19.72
2018-10-17T10:30:07.269Z,19.78
2018-10-17T10:32:40.692Z,19.82
2018-10-17T10:35:09.860Z,19.87
2018-10-17T10:37:38.951Z,19.94
2018-10-17T10:40:10.398Z,20.09
2018-10-17T10:42:39.104Z,20.25
2018-10-17T10:45:08.628Z,20.39
2018-10-17T10:47:37.642Z,20.41
2018-10-17T10:50:09.591Z,20.48
2018-10-17T10:52:38.297Z,20.54
2018-10-17T10:55:08.127Z,20.66
2018-10-17T10:57:37.148Z,20.73
2018-10-17T11:00:16.168Z,20.77
2018-10-17T11:02:45.048Z,20.77
2018-10-17T11:05:14.274Z,20.71
2018-10-17T11:07:43.980Z,20.71
2018-10-17T11:10:18.143Z,20.73
2018-10-17T11:12:47.003Z,20.77
2018-10-17T11:15:16.111Z,20.85
2018-10-17T11:17:44.951Z,21.06
2018-10-17T11:20:13.936Z,21.34
2018-10-17T11:22:42.700Z,21.56
2018-10-17T11:25:14.894Z,21.78
2018-10-17T11:27:43.761Z,22.04
2018-10-17T11:30:15.936Z,22.25
2018-10-17T11:32:44.823Z,22.39
2018-10-17T11:35:13.748Z,22.64
2018-10-17T11:37:42.555Z,22.94
2018-10-17T11:40:12.658Z,23.24
2018-10-17T11:42:41.577Z,23.60
2018-10-17T11:45:10.349Z,23.90
2018-10-17T11:47:39.105Z,24.21
2018-10-17T11:50:09.441Z,24.38
2018-10-17T11:52:45.504Z,24.52
2018-10-17T11:55:14.421Z,24.68
2018-10-17T11:57:43.172Z,24.68
2018-10-17T12:00:13.344Z,24.63
2018-10-17T12:02:43.845Z,24.71
2018-10-17T12:05:14.251Z,24.84
2018-10-17T12:10:17.681Z,25.16
2018-10-17T12:12:46.423Z,25.28
2018-10-17T12:15:16.197Z,25.39
2018-10-17T12:17:45.548Z,25.50
2018-10-17T12:20:15.271Z,25.58
2018-10-17T12:22:47.301Z,25.50
2018-10-17T12:25:16.111Z,25.49
2018-10-17T12:27:45.271Z,25.66
2018-10-17T12:30:15.095Z,25.84
2018-10-17T12:32:49.172Z,25.98
2018-10-17T12:35:18.681Z,26.07
2018-10-17T12:37:47.426Z,26.14
2018-10-17T12:40:16.363Z,26.13
2018-10-17T12:42:46.885Z,26.08
2018-10-17T12:45:16.048Z,26.10
2018-10-17T12:47:44.788Z,26.19
2018-10-17T12:50:13.872Z,26.12
2018-10-17T12:52:48.367Z,26.20
2018-10-17T12:55:17.088Z,26.25
2018-10-17T12:57:46.002Z,26.05
2018-10-17T13:00:17.740Z,25.98
2018-10-17T13:02:55.509Z,26.07
2018-10-17T13:05:24.428Z,26.21
2018-10-17T13:07:53.164Z,26.27
2018-10-17T13:10:21.882Z,26.39
2018-10-17T13:12:51.332Z,26.37
2018-10-17T13:15:20.343Z,26.42
2018-10-17T13:17:49.119Z,26.34
2018-10-17T13:20:18.047Z,26.29
2018-10-17T13:22:49.590Z,26.04
2018-10-17T13:25:18.272Z,25.85
2018-10-17T13:27:47.827Z,25.93
2018-10-17T13:30:17.584Z,26.10
2018-10-17T13:32:54.263Z,26.24
2018-10-17T13:35:22.960Z,26.28
2018-10-17T13:37:52.802Z,26.51
2018-10-17T13:40:21.583Z,26.74
2018-10-17T13:42:50.794Z,26.90
2018-10-17T13:45:19.807Z,26.90
2018-10-17T13:47:48.700Z,27.01
2018-10-17T13:50:17.698Z,27.10
2018-10-17T13:52:49.791Z,27.09
2018-10-17T13:55:19.282Z,26.98
2018-10-17T13:57:48.053Z,26.75
2018-10-17T14:00:16.855Z,26.75
2018-10-17T14:02:45.553Z,26.69
2018-10-17T14:05:15.026Z,26.54
2018-10-17T14:07:44.089Z,26.32
2018-10-17T14:10:12.863Z,26.70
2018-10-17T14:12:42.052Z,27.59
2018-10-17T14:15:10.884Z,29.09
2018-10-17T14:17:39.664Z,31.04
2018-10-17T14:20:08.518Z,32.42
2018-10-17T14:22:46.772Z,33.84
2018-10-17T14:25:15.935Z,34.32
2018-10-17T14:27:44.778Z,34.13
2018-10-17T14:30:13.946Z,32.83
2018-10-17T14:32:42.633Z,31.55
2018-10-17T14:35:13.214Z,30.49
2018-10-17T14:37:42.241Z,30.69
2018-10-17T14:40:11.967Z,31.68
2018-10-17T14:42:50.063Z,32.68
2018-10-17T14:45:19.177Z,33.42
2018-10-17T14:47:48.168Z,32.97
2018-10-17T14:50:16.987Z,32.07
2018-10-17T14:52:52.768Z,31.87
2018-10-17T14:55:21.557Z,31.99
2018-10-17T14:57:50.188Z,31.92
2018-10-17T15:00:18.950Z,31.59
2018-10-17T15:02:48.885Z,31.47
2018-10-17T15:05:18.889Z,31.50
2018-10-17T15:07:47.848Z,31.41
2018-10-17T15:10:16.891Z,31.38
2018-10-17T15:12:49.699Z,31.27
2018-10-17T15:15:18.438Z,31.04
2018-10-17T15:17:49.040Z,30.69
2018-10-17T15:20:18.122Z,30.67
2018-10-17T15:22:54.500Z,30.88
2018-10-17T15:25:23.488Z,30.87
2018-10-17T15:27:52.677Z,30.40
2018-10-17T15:30:21.768Z,29.93
2018-10-17T15:33:05.002Z,29.14
2018-10-17T15:35:33.779Z,28.08
2018-10-17T15:38:02.519Z,27.23
2018-10-17T15:40:31.448Z,26.11
2018-10-17T15:43:01.101Z,25.10
2018-10-17T15:45:29.904Z,24.30
2018-10-17T15:47:58.772Z,23.85
2018-10-17T15:50:27.463Z,23.40
2018-10-17T15:52:58.859Z,22.89
2018-10-17T15:55:27.608Z,22.52
2018-10-17T15:57:57.180Z,22.14
2018-10-17T16:00:26.073Z,21.78
2018-10-17T16:03:01.976Z,21.39
2018-10-17T16:05:30.812Z,21.04
2018-10-17T16:07:59.621Z,20.70
2018-10-17T16:10:28.447Z,20.43
2018-10-17T16:12:57.200Z,20.11
2018-10-17T16:15:26.215Z,19.89
2018-10-17T16:17:55.262Z,19.64
2018-10-17T16:20:24.328Z,19.28
2018-10-17T16:22:53.112Z,18.94
2018-10-17T16:25:22.148Z,18.73
2018-10-17T16:27:51.275Z,18.56
2018-10-17T16:30:20.155Z,18.37
2018-10-17T16:32:52.584Z,18.19
2018-10-17T16:35:21.398Z,17.98
2018-10-17T16:37:50.179Z,17.73
2018-10-17T16:40:19.557Z,17.51
2018-10-17T16:42:48.196Z,17.33
2018-10-17T16:45:18.148Z,17.12
2018-10-17T16:47:47.457Z,17.01
2018-10-17T16:50:16.682Z,16.89
2018-10-17T16:52:45.673Z,16.79
2018-10-17T16:55:14.742Z,16.69
2018-10-17T16:57:43.710Z,16.72
2018-10-17T17:00:13.289Z,16.75
2018-10-17T17:02:42.263Z,16.76
2018-10-17T17:05:12.995Z,16.78
2018-10-17T17:07:41.987Z,16.84
2018-10-17T17:10:12.004Z,16.86
2018-10-17T17:12:40.933Z,16.80
2018-10-17T17:15:13.027Z,16.80
2018-10-17T17:17:42.514Z,16.75
2018-10-17T17:20:12.158Z,16.82
2018-10-17T17:22:41.617Z,16.89
2018-10-17T17:25:10.844Z,16.90
2018-10-17T17:27:39.912Z,16.82
2018-10-17T17:30:13.335Z,16.81
2018-10-17T17:32:42.109Z,16.87
2018-10-17T17:35:10.936Z,16.93
2018-10-17T17:37:39.913Z,16.92
2018-10-17T17:40:10.219Z,16.85
2018-10-17T17:42:39.041Z,16.75
2018-10-17T17:45:08.576Z,16.63
2018-10-17T17:47:37.825Z,16.60
2018-10-17T17:50:07.444Z,16.56
2018-10-17T17:52:36.370Z,16.58
2018-10-17T17:55:09.704Z,16.69
2018-10-17T17:57:39.642Z,16.80
2018-10-17T18:00:09.107Z,16.86
2018-10-17T18:02:37.791Z,16.98
2018-10-17T18:05:07.378Z,16.93
2018-10-17T18:07:36.705Z,16.83
2018-10-17T18:10:05.739Z,16.85
2018-10-17T18:12:34.784Z,16.74
2018-10-17T18:15:03.584Z,16.76
2018-10-17T18:17:32.337Z,16.77
2018-10-17T18:20:01.461Z,16.73
2018-10-17T18:22:30.727Z,16.58
2018-10-17T18:24:59.808Z,16.43
2018-10-17T18:27:28.752Z,16.28
2018-10-17T18:29:58.300Z,16.27
2018-10-17T18:32:27.533Z,16.25
2018-10-17T18:34:56.474Z,16.19
2018-10-17T18:37:25.507Z,16.16
2018-10-17T18:39:54.486Z,16.03
2018-10-17T18:42:23.462Z,15.99
2018-10-17T18:44:52.274Z,15.99
2018-10-17T18:47:21.404Z,15.93
2018-10-17T18:49:50.375Z,15.79
2018-10-17T18:52:19.217Z,15.69
2018-10-17T18:54:48.446Z,15.71
2018-10-17T18:57:17.496Z,15.71
2018-10-17T18:59:46.271Z,15.63
2018-10-17T19:02:15.078Z,15.62
2018-10-17T19:04:43.738Z,15.65
2018-10-17T19:07:12.958Z,15.68
2018-10-17T19:09:42.152Z,15.67
2018-10-17T19:12:10.956Z,15.73
2018-10-17T19:14:39.783Z,15.77
2018-10-17T19:17:09.294Z,15.71
2018-10-17T19:19:38.478Z,15.67
2018-10-17T19:22:07.428Z,15.66
2018-10-17T19:24:36.651Z,15.66
2018-10-17T19:27:05.750Z,15.74
2018-10-17T19:29:35.385Z,15.73
2018-10-17T19:32:05.972Z,15.70
2018-10-17T19:34:34.894Z,15.68
2018-10-17T19:37:03.604Z,15.62
2018-10-17T19:39:32.658Z,15.64
2018-10-17T19:42:01.547Z,15.68
2018-10-17T19:44:30.733Z,15.66
2018-10-17T19:46:59.731Z,15.62
2018-10-17T19:49:28.426Z,15.61
2018-10-17T19:51:57.829Z,15.53
2018-10-17T19:54:26.904Z,15.52
2018-10-17T19:56:56.058Z,15.50
2018-10-17T19:59:24.745Z,15.51
2018-10-17T20:01:53.636Z,15.49
2018-10-17T20:04:22.619Z,15.59
2018-10-17T20:06:51.796Z,15.61
2018-10-17T20:09:20.647Z,15.54
2018-10-17T20:11:49.411Z,15.55
2018-10-17T20:14:18.629Z,15.54
2018-10-17T20:16:47.272Z,15.58
2018-10-17T20:19:16.328Z,15.53
2018-10-17T20:21:45.274Z,15.55
2018-10-17T20:24:14.060Z,15.57
2018-10-17T20:26:42.847Z,15.45
2018-10-17T20:29:11.713Z,15.32
2018-10-17T20:31:40.526Z,15.26
2018-10-17T20:34:09.286Z,15.16
2018-10-17T20:36:37.915Z,15.16
2018-10-17T20:39:11.043Z,15.16
2018-10-17T20:41:40.232Z,15.06
2018-10-17T20:44:10.047Z,15.01
2018-10-17T20:46:38.801Z,15.00
2018-10-17T20:49:09.013Z,14.96
2018-10-17T20:51:38.096Z,14.94
2018-10-17T20:54:07.423Z,14.90
2018-10-17T20:56:36.529Z,14.91
2018-10-17T20:59:05.751Z,14.90
2018-10-17T21:01:34.878Z,14.83
2018-10-17T21:04:04.080Z,14.80
2018-10-17T21:06:32.808Z,14.87
2018-10-17T21:09:02.509Z,14.85
2018-10-17T21:11:31.322Z,14.80
2018-10-17T21:14:00.481Z,14.79
2018-10-17T21:16:29.510Z,14.77
2018-10-17T21:18:58.755Z,14.68
2018-10-17T21:21:27.418Z,14.74
2018-10-17T21:23:56.111Z,14.63
2018-10-17T21:26:24.923Z,14.57
2018-10-17T21:28:54.604Z,14.57
2018-10-17T21:31:24.184Z,14.53
2018-10-17T21:33:53.769Z,14.49
2018-10-17T21:36:22.585Z,14.48
2018-10-17T21:38:51.711Z,14.51
2018-10-17T21:41:21.324Z,14.43
2018-10-17T21:43:51.546Z,14.40
2018-10-17T21:46:20.998Z,14.37
2018-10-17T21:48:49.817Z,14.30
2018-10-17T21:51:19.213Z,14.14
2018-10-17T21:53:48.345Z,14.06
2018-10-17T21:56:17.198Z,14.03
2018-10-17T21:58:46.343Z,13.97
2018-10-17T22:01:15.060Z,13.87
2018-10-17T22:03:44.156Z,13.93
2018-10-17T22:06:12.927Z,13.93
2018-10-17T22:08:42.395Z,13.90
2018-10-17T22:11:11.124Z,13.86
2018-10-17T22:13:40.275Z,13.83
2018-10-17T22:16:09.020Z,13.85
2018-10-17T22:18:37.778Z,13.84
2018-10-17T22:21:07.077Z,13.83
2018-10-17T22:23:35.989Z,13.76
2018-10-17T22:26:04.873Z,13.73
2018-10-17T22:28:34.114Z,13.70
2018-10-17T22:31:03.030Z,13.70
2018-10-17T22:33:32.073Z,13.70
2018-10-17T22:36:00.857Z,13.69
2018-10-17T22:38:30.041Z,13.65
2018-10-17T22:40:58.858Z,13.66
2018-10-17T22:43:28.396Z,13.65
2018-10-17T22:45:58.265Z,13.65
2018-10-17T22:48:27.134Z,13.67
2018-10-17T22:50:56.002Z,13.57
2018-10-17T22:53:24.782Z,13.59
2018-10-17T22:55:53.600Z,13.57
2018-10-17T22:58:22.644Z,13.47
2018-10-17T23:00:51.633Z,13.42
2018-10-17T23:03:20.313Z,13.33
2018-10-17T23:05:49.010Z,13.38
2018-10-17T23:08:18.513Z,13.39
2018-10-17T23:10:47.642Z,13.43
2018-10-17T23:13:16.695Z,13.41
2018-10-17T23:15:45.681Z,13.38
2018-10-17T23:18:14.584Z,13.38
2018-10-17T23:20:43.655Z,13.35
2018-10-17T23:23:12.394Z,13.30
2018-10-17T23:25:41.880Z,13.32
2018-10-17T23:28:10.534Z,13.24
2018-10-17T23:30:39.299Z,13.17
2018-10-17T23:33:08.422Z,13.05
2018-10-17T23:35:37.878Z,12.91
2018-10-17T23:38:07.066Z,12.76
2018-10-17T23:40:35.843Z,12.60
2018-10-17T23:43:07.970Z,12.52
2018-10-17T23:45:37.077Z,12.78
2018-10-17T23:48:07.497Z,12.89
2018-10-17T23:50:37.754Z,13.08
2018-10-17T23:53:07.556Z,13.19
2018-10-17T23:55:37.175Z,13.28
2018-10-17T23:58:06.380Z,13.40
